Aérodrome :
LOGIN :

S'inscrire | Disclaimer

   EN    FR    IT 

 










Légende :    VFR   VFR Marginal   IFR   IFR Intensif   IFR Très Intensif
Visi : 
Plafond : 
>= 8 km
>= 3000ft
5 à 8 km
1000 à 3000 ft
1500m à 5 km
500 à 1000 ft
800 à 1500m
200 à 500 ft
< 800m
< 200 ft
Symboles :   Orages  Brouillard  Fortes neiges  Fortes précipitations  Vent > 20 kt
SIGMETs :   Divers  Orages  Givrage  Turbulence  Onde Orograph.  Cendres Volcan.






- Altitude de l'aérodrome : 124 ft
- Code IATA : RNS


LFRN - Rennes

DERNIER METAR :
  • 100430Z AUTO 16004KT 5000 BR NSC 02/02 Q1027

METARs EXPIRÉS :
  • 100400Z AUTO 18004KT 5000 BR NSC 02/02 Q1027
  • 100330Z AUTO 13004KT 6000 NSC 03/02 Q1028
  • 100300Z AUTO 19003KT 7000 1800 NSC 03/02 Q1028
  • 100230Z AUTO 15003KT 7000 NSC 03/02 Q1028

TAF TAF LFRN
Valide du 09 à 18h jusqu'au 10 à 18h UTC


091700Z 0918/1018 32010KT 9999 SCT030
BECMG 0918/0920 VRB05KT
TEMPO 0923/1007 3000 BR
PROB40
TEMPO 1000/1006 0500 FG
BECMG 1006/1008 17010KT
TEMPO 1010/1018 5000 RA BKN012
BECMG 1013/1015 20015G25KT
ATIS : +33 2 99 67 72 50



MET'MAP, la Météo Aéronautique d'un coup d'oeil ! - Copyright ORBIFLY Décembre 2007 - Disclaimer

ORBIFLY MET'MAP TEAM :

Programmation & Développement : Alexandra Zaïnal
Sur une idée originale de : Baudouin d'Aumeries
Assistance à la programmation : Marc-Olivier Méhu
Soutien technique & logistique : Manuel Goepfert

Contact : metmap@orbifly.com




SOURCES & CREDITS :

   NOAA